Altmar, NY

1:50 AM EDT on March 27, 2015 (GMT -0400)
Pulaski, NY | | Change Station
CLOSE
Current Station
Personal Weather Station
Location: Pulaski, NY
Elevation: 404 ft
Nearby Weather Stations

Elev 404 ft 43.57 °N, 76.13 °W | Updated 28 seconds ago

Overcast
Overcast
32.4 °F
Feels Like 32 °F
N
0.0
Wind Variable Wind from East
Gusts 1.6 mph

Today
High -- | Low -- °F
--% Chance of Precip.
Yesterday
High -- | Low -- °F
Precip. -- in
6:55 AM 7:24 PM
Waxing Crescent, 49% visible
Pressure 29.79 in
Visibility 3.0 miles
Clouds Overcast 800 ft
Windchill 32 °F
Dew Point 28 °F
Humidity 82%
Rainfall 0.00 in
Snow Depth Not available.
UV 0 out of 12
Pollen .60 out of 12
Air Quality Not available.
Flu Activity Not available.
SPECI KFZY 270532Z AUTO 20005KT 3SM BR OVC008 01/00 A2979 RMK AO2 CIG 004V011 T00110000

More Conditions Fewer Conditions

Pressure 29.79 in
Visibility 3.0 miles
Clouds Overcast 800 ft
Windchill 32 °F
Dew Point 28 °F
Humidity 82%
Rainfall 0.00 in
Snow Depth Not available.
UV 0 out of 12
Pollen .60 out of 12
Air Quality Not available.
Flu Activity Not available.
SPECI KFZY 270532Z AUTO 20005KT 3SM BR OVC008 01/00 A2979 RMK AO2 CIG 004V011 T00110000

More Conditions Fewer Conditions

10-Day Weather Forecast

Almanac

Astronomy

Mar. 27, 2015 Rise Set
Actual Time
Civil Twilight
Nautical Twilight
Astronomical Twilight
Moon
Length of Visible Light
Length of Day
Tomorrow will be .
, % of the Moon is Illuminated

Today's Extremes

State Highs State Lows

Community

WunderPhotos

Upload Photos

1,808,698 photos uploaded!

WunderBlogs® & News

Nearby

Air Quality

  Air Quality AQ Index Pollutant
Not available.

Snow Depth

Station Depth Elevation

Earthquake Activity

City Distance Mag. Time & Date
Minimum magnitude displayed is 2.5.

Coastal Water Temperatures

Place Temperature

Stations

Nearby Weather Stations

Station Location Temp. Windchill Dew Point Humidity Wind Precip. Elev Updated Type